sensor_id;sensor_type;location;lat;lon;timestamp;temperature;humidity
14733;DHT22;7457;50.960;6.830;2022-07-29T00:00:36;18.80;72.50
14733;DHT22;7457;50.960;6.830;2022-07-29T00:03:02;18.70;72.60
14733;DHT22;7457;50.960;6.830;2022-07-29T00:05:28;18.70;72.80
14733;DHT22;7457;50.960;6.830;2022-07-29T00:07:54;18.60;73.10
14733;DHT22;7457;50.960;6.830;2022-07-29T00:10:20;18.50;73.30
14733;DHT22;7457;50.960;6.830;2022-07-29T00:12:45;18.50;73.30
14733;DHT22;7457;50.960;6.830;2022-07-29T00:15:11;18.50;73.30
14733;DHT22;7457;50.960;6.830;2022-07-29T00:17:36;18.50;73.30
14733;DHT22;7457;50.960;6.830;2022-07-29T00:20:03;18.50;73.30
14733;DHT22;7457;50.960;6.830;2022-07-29T00:22:29;18.50;73.40
14733;DHT22;7457;50.960;6.830;2022-07-29T00:24:54;18.60;73.60
14733;DHT22;7457;50.960;6.830;2022-07-29T00:27:20;18.60;73.80
14733;DHT22;7457;50.960;6.830;2022-07-29T00:29:45;18.60;73.80
14733;DHT22;7457;50.960;6.830;2022-07-29T00:32:11;18.70;74.10
14733;DHT22;7457;50.960;6.830;2022-07-29T00:34:37;18.70;74.20
14733;DHT22;7457;50.960;6.830;2022-07-29T00:37:21;18.60;74.20
14733;DHT22;7457;50.960;6.830;2022-07-29T00:39:46;18.60;74.50
14733;DHT22;7457;50.960;6.830;2022-07-29T00:42:12;18.50;74.60
14733;DHT22;7457;50.960;6.830;2022-07-29T00:44:39;18.50;74.90
14733;DHT22;7457;50.960;6.830;2022-07-29T00:47:06;18.50;75.00
14733;DHT22;7457;50.960;6.830;2022-07-29T00:49:32;18.50;75.10
14733;DHT22;7457;50.960;6.830;2022-07-29T00:51:59;18.50;75.30
14733;DHT22;7457;50.960;6.830;2022-07-29T00:54:25;18.50;75.30
14733;DHT22;7457;50.960;6.830;2022-07-29T00:56:52;18.50;76.10
14733;DHT22;7457;50.960;6.830;2022-07-29T00:59:18;18.50;75.40
14733;DHT22;7457;50.960;6.830;2022-07-29T01:01:44;18.60;75.60
14733;DHT22;7457;50.960;6.830;2022-07-29T01:04:09;18.60;75.60
14733;DHT22;7457;50.960;6.830;2022-07-29T01:06:35;18.60;75.60
14733;DHT22;7457;50.960;6.830;2022-07-29T01:09:01;18.60;75.70
14733;DHT22;7457;50.960;6.830;2022-07-29T01:11:27;18.70;75.90
14733;DHT22;7457;50.960;6.830;2022-07-29T01:13:53;18.60;75.80
14733;DHT22;7457;50.960;6.830;2022-07-29T01:16:32;18.70;76.00
14733;DHT22;7457;50.960;6.830;2022-07-29T01:22:25;18.60;76.20
14733;DHT22;7457;50.960;6.830;2022-07-29T01:25:22;18.50;76.30
14733;DHT22;7457;50.960;6.830;2022-07-29T01:30:25;18.40;76.80
14733;DHT22;7457;50.960;6.830;2022-07-29T01:32:56;18.40;77.00
14733;DHT22;7457;50.960;6.830;2022-07-29T01:35:26;18.30;77.30
14733;DHT22;7457;50.960;6.830;2022-07-29T01:41:06;18.20;77.80
14733;DHT22;7457;50.960;6.830;2022-07-29T01:44:10;18.10;77.90
14733;DHT22;7457;50.960;6.830;2022-07-29T01:46:40;18.00;78.20
14733;DHT22;7457;50.960;6.830;2022-07-29T01:49:11;17.90;78.40
14733;DHT22;7457;50.960;6.830;2022-07-29T01:51:46;17.80;78.60
14733;DHT22;7457;50.960;6.830;2022-07-29T01:54:19;17.70;79.00
14733;DHT22;7457;50.960;6.830;2022-07-29T01:56:48;17.70;79.30
14733;DHT22;7457;50.960;6.830;2022-07-29T01:59:16;17.70;79.60
14733;DHT22;7457;50.960;6.830;2022-07-29T02:01:44;17.60;79.80
14733;DHT22;7457;50.960;6.830;2022-07-29T02:04:11;17.60;80.00
14733;DHT22;7457;50.960;6.830;2022-07-29T02:06:38;17.60;80.30
14733;DHT22;7457;50.960;6.830;2022-07-29T02:09:07;17.60;80.40
14733;DHT22;7457;50.960;6.830;2022-07-29T02:11:34;17.60;80.50
14733;DHT22;7457;50.960;6.830;2022-07-29T02:14:01;17.60;80.60
14733;DHT22;7457;50.960;6.830;2022-07-29T02:16:30;17.60;80.70
14733;DHT22;7457;50.960;6.830;2022-07-29T02:18:58;17.70;80.80
14733;DHT22;7457;50.960;6.830;2022-07-29T02:21:26;17.70;80.70
14733;DHT22;7457;50.960;6.830;2022-07-29T02:23:54;17.80;80.80
14733;DHT22;7457;50.960;6.830;2022-07-29T02:26:23;17.80;80.70
14733;DHT22;7457;50.960;6.830;2022-07-29T02:28:51;17.80;80.80
14733;DHT22;7457;50.960;6.830;2022-07-29T02:31:24;17.80;80.80
14733;DHT22;7457;50.960;6.830;2022-07-29T02:33:52;17.70;81.00
14733;DHT22;7457;50.960;6.830;2022-07-29T02:36:21;17.80;81.20
14733;DHT22;7457;50.960;6.830;2022-07-29T02:38:48;17.70;81.20
14733;DHT22;7457;50.960;6.830;2022-07-29T02:41:25;17.70;81.20
14733;DHT22;7457;50.960;6.830;2022-07-29T02:43:55;17.70;81.50
14733;DHT22;7457;50.960;6.830;2022-07-29T02:46:29;17.70;81.50
14733;DHT22;7457;50.960;6.830;2022-07-29T02:51:43;17.70;81.50
14733;DHT22;7457;50.960;6.830;2022-07-29T02:54:14;17.70;81.30
14733;DHT22;7457;50.960;6.830;2022-07-29T02:56:45;17.70;81.10
14733;DHT22;7457;50.960;6.830;2022-07-29T02:59:13;17.80;81.10
14733;DHT22;7457;50.960;6.830;2022-07-29T03:01:42;17.80;81.10
14733;DHT22;7457;50.960;6.830;2022-07-29T03:04:09;17.80;81.10
14733;DHT22;7457;50.960;6.830;2022-07-29T03:06:37;17.80;80.90
14733;DHT22;7457;50.960;6.830;2022-07-29T03:09:04;17.80;80.90
14733;DHT22;7457;50.960;6.830;2022-07-29T03:11:31;17.80;80.70
14733;DHT22;7457;50.960;6.830;2022-07-29T03:13:58;17.80;80.60
14733;DHT22;7457;50.960;6.830;2022-07-29T03:16:24;17.80;80.60
14733;DHT22;7457;50.960;6.830;2022-07-29T03:18:51;17.80;80.60
14733;DHT22;7457;50.960;6.830;2022-07-29T03:21:17;17.80;80.60
14733;DHT22;7457;50.960;6.830;2022-07-29T03:23:45;17.80;80.60
14733;DHT22;7457;50.960;6.830;2022-07-29T03:26:12;17.80;80.60
14733;DHT22;7457;50.960;6.830;2022-07-29T03:28:38;17.70;80.50
14733;DHT22;7457;50.960;6.830;2022-07-29T03:31:04;17.70;80.50
14733;DHT22;7457;50.960;6.830;2022-07-29T03:33:29;17.70;80.30
14733;DHT22;7457;50.960;6.830;2022-07-29T03:35:56;17.80;80.10
14733;DHT22;7457;50.960;6.830;2022-07-29T03:38:24;17.80;79.90
14733;DHT22;7457;50.960;6.830;2022-07-29T03:41:03;17.80;79.80
14733;DHT22;7457;50.960;6.830;2022-07-29T03:43:32;17.90;79.70
14733;DHT22;7457;50.960;6.830;2022-07-29T03:46:00;17.80;79.50
14733;DHT22;7457;50.960;6.830;2022-07-29T03:48:28;17.90;79.50
14733;DHT22;7457;50.960;6.830;2022-07-29T03:50:56;17.80;79.40
14733;DHT22;7457;50.960;6.830;2022-07-29T03:53:22;17.80;79.30
14733;DHT22;7457;50.960;6.830;2022-07-29T03:55:52;17.80;79.30
14733;DHT22;7457;50.960;6.830;2022-07-29T03:58:18;17.80;79.40
14733;DHT22;7457;50.960;6.830;2022-07-29T04:00:45;17.90;79.60
14733;DHT22;7457;50.960;6.830;2022-07-29T04:03:12;17.80;79.40
14733;DHT22;7457;50.960;6.830;2022-07-29T04:05:38;17.80;79.40
14733;DHT22;7457;50.960;6.830;2022-07-29T04:08:04;17.80;79.50
14733;DHT22;7457;50.960;6.830;2022-07-29T04:10:30;17.80;79.40
14733;DHT22;7457;50.960;6.830;2022-07-29T04:12:55;17.80;79.40
14733;DHT22;7457;50.960;6.830;2022-07-29T04:15:21;17.80;79.50
14733;DHT22;7457;50.960;6.830;2022-07-29T04:17:47;17.80;79.60
14733;DHT22;7457;50.960;6.830;2022-07-29T04:20:12;17.80;79.70
14733;DHT22;7457;50.960;6.830;2022-07-29T04:22:39;17.80;79.60
14733;DHT22;7457;50.960;6.830;2022-07-29T04:25:05;17.70;79.50
14733;DHT22;7457;50.960;6.830;2022-07-29T04:27:31;17.80;79.70
14733;DHT22;7457;50.960;6.830;2022-07-29T04:29:57;17.80;79.60
14733;DHT22;7457;50.960;6.830;2022-07-29T04:32:24;17.80;79.60
14733;DHT22;7457;50.960;6.830;2022-07-29T04:34:50;17.80;79.80
14733;DHT22;7457;50.960;6.830;2022-07-29T04:37:15;17.80;79.70
14733;DHT22;7457;50.960;6.830;2022-07-29T04:39:41;17.80;79.80
14733;DHT22;7457;50.960;6.830;2022-07-29T04:42:07;17.80;79.80
14733;DHT22;7457;50.960;6.830;2022-07-29T04:44:32;17.80;79.80
14733;DHT22;7457;50.960;6.830;2022-07-29T04:46:58;17.80;79.80
14733;DHT22;7457;50.960;6.830;2022-07-29T04:49:23;17.90;80.00
14733;DHT22;7457;50.960;6.830;2022-07-29T04:51:49;17.90;80.00
14733;DHT22;7457;50.960;6.830;2022-07-29T04:54:15;17.90;80.00
14733;DHT22;7457;50.960;6.830;2022-07-29T04:56:41;17.90;80.10
14733;DHT22;7457;50.960;6.830;2022-07-29T04:59:07;17.90;80.90
14733;DHT22;7457;50.960;6.830;2022-07-29T05:01:32;17.90;80.20
14733;DHT22;7457;50.960;6.830;2022-07-29T05:03:58;18.00;80.40
14733;DHT22;7457;50.960;6.830;2022-07-29T05:06:24;18.00;80.40
14733;DHT22;7457;50.960;6.830;2022-07-29T05:08:49;18.00;80.50
14733;DHT22;7457;50.960;6.830;2022-07-29T05:11:15;18.00;80.70
14733;DHT22;7457;50.960;6.830;2022-07-29T05:13:40;17.90;80.70
14733;DHT22;7457;50.960;6.830;2022-07-29T05:16:07;17.90;80.70
14733;DHT22;7457;50.960;6.830;2022-07-29T05:18:33;17.90;81.00
14733;DHT22;7457;50.960;6.830;2022-07-29T05:20:59;17.90;81.30
14733;DHT22;7457;50.960;6.830;2022-07-29T05:23:24;17.80;81.40
14733;DHT22;7457;50.960;6.830;2022-07-29T05:25:50;17.80;81.60
14733;DHT22;7457;50.960;6.830;2022-07-29T05:28:16;17.80;81.80
14733;DHT22;7457;50.960;6.830;2022-07-29T05:30:42;17.80;82.00
14733;DHT22;7457;50.960;6.830;2022-07-29T05:33:09;17.70;82.10
14733;DHT22;7457;50.960;6.830;2022-07-29T05:35:35;17.80;82.40
14733;DHT22;7457;50.960;6.830;2022-07-29T05:38:05;17.80;82.50
14733;DHT22;7457;50.960;6.830;2022-07-29T05:40:30;17.90;82.80
14733;DHT22;7457;50.960;6.830;2022-07-29T05:42:56;17.90;82.70
14733;DHT22;7457;50.960;6.830;2022-07-29T05:45:22;17.90;82.90
14733;DHT22;7457;50.960;6.830;2022-07-29T05:47:48;18.00;83.00
14733;DHT22;7457;50.960;6.830;2022-07-29T05:50:14;18.00;83.00
14733;DHT22;7457;50.960;6.830;2022-07-29T05:52:40;18.00;83.00
14733;DHT22;7457;50.960;6.830;2022-07-29T05:55:05;18.10;83.00
14733;DHT22;7457;50.960;6.830;2022-07-29T05:57:31;18.10;83.00
14733;DHT22;7457;50.960;6.830;2022-07-29T05:59:57;18.20;83.00
14733;DHT22;7457;50.960;6.830;2022-07-29T06:02:23;18.20;83.00
14733;DHT22;7457;50.960;6.830;2022-07-29T06:04:49;18.30;82.90
14733;DHT22;7457;50.960;6.830;2022-07-29T06:07:15;18.30;82.80
14733;DHT22;7457;50.960;6.830;2022-07-29T06:09:41;18.40;82.80
14733;DHT22;7457;50.960;6.830;2022-07-29T06:12:07;18.40;82.60
14733;DHT22;7457;50.960;6.830;2022-07-29T06:14:33;18.50;82.90
14733;DHT22;7457;50.960;6.830;2022-07-29T06:16:59;18.40;82.80
14733;DHT22;7457;50.960;6.830;2022-07-29T06:19:24;18.40;82.90
14733;DHT22;7457;50.960;6.830;2022-07-29T06:21:50;18.30;82.90
14733;DHT22;7457;50.960;6.830;2022-07-29T06:24:16;18.30;82.90
14733;DHT22;7457;50.960;6.830;2022-07-29T06:26:42;18.20;83.00
14733;DHT22;7457;50.960;6.830;2022-07-29T06:29:08;18.20;83.00
14733;DHT22;7457;50.960;6.830;2022-07-29T06:31:34;18.10;83.00
14733;DHT22;7457;50.960;6.830;2022-07-29T06:34:00;18.10;83.10
14733;DHT22;7457;50.960;6.830;2022-07-29T06:36:25;18.10;83.30
14733;DHT22;7457;50.960;6.830;2022-07-29T06:38:51;18.10;83.30
14733;DHT22;7457;50.960;6.830;2022-07-29T06:41:17;18.10;83.40
14733;DHT22;7457;50.960;6.830;2022-07-29T06:43:43;18.10;83.50
14733;DHT22;7457;50.960;6.830;2022-07-29T06:46:11;18.10;83.60
14733;DHT22;7457;50.960;6.830;2022-07-29T06:48:38;18.00;83.80
14733;DHT22;7457;50.960;6.830;2022-07-29T06:51:05;18.00;84.10
14733;DHT22;7457;50.960;6.830;2022-07-29T06:53:31;17.90;84.40
14733;DHT22;7457;50.960;6.830;2022-07-29T06:55:58;17.80;84.50
14733;DHT22;7457;50.960;6.830;2022-07-29T06:58:25;17.80;84.60
14733;DHT22;7457;50.960;6.830;2022-07-29T07:00:51;17.70;85.10
14733;DHT22;7457;50.960;6.830;2022-07-29T07:03:17;17.70;85.30
14733;DHT22;7457;50.960;6.830;2022-07-29T07:05:43;17.70;85.60
14733;DHT22;7457;50.960;6.830;2022-07-29T07:08:10;17.70;85.90
14733;DHT22;7457;50.960;6.830;2022-07-29T07:10:36;17.70;86.10
14733;DHT22;7457;50.960;6.830;2022-07-29T07:13:02;17.80;86.40
14733;DHT22;7457;50.960;6.830;2022-07-29T07:15:28;17.80;86.50
14733;DHT22;7457;50.960;6.830;2022-07-29T07:17:54;17.80;86.70
14733;DHT22;7457;50.960;6.830;2022-07-29T07:20:19;17.80;86.70
14733;DHT22;7457;50.960;6.830;2022-07-29T07:22:45;17.80;87.10
14733;DHT22;7457;50.960;6.830;2022-07-29T07:25:12;17.80;87.70
14733;DHT22;7457;50.960;6.830;2022-07-29T07:27:38;17.70;87.60
14733;DHT22;7457;50.960;6.830;2022-07-29T07:30:06;17.70;87.80
14733;DHT22;7457;50.960;6.830;2022-07-29T07:32:35;17.70;88.00
14733;DHT22;7457;50.960;6.830;2022-07-29T07:35:07;17.80;88.50
14733;DHT22;7457;50.960;6.830;2022-07-29T07:37:33;17.80;88.90
14733;DHT22;7457;50.960;6.830;2022-07-29T07:40:00;17.90;88.80
14733;DHT22;7457;50.960;6.830;2022-07-29T07:42:26;18.00;89.10
14733;DHT22;7457;50.960;6.830;2022-07-29T07:44:51;18.00;88.90
14733;DHT22;7457;50.960;6.830;2022-07-29T07:47:18;18.00;89.00
14733;DHT22;7457;50.960;6.830;2022-07-29T07:49:48;18.00;89.10
14733;DHT22;7457;50.960;6.830;2022-07-29T07:52:15;18.00;89.30
14733;DHT22;7457;50.960;6.830;2022-07-29T07:54:41;17.90;89.30
14733;DHT22;7457;50.960;6.830;2022-07-29T07:57:08;17.90;89.60
14733;DHT22;7457;50.960;6.830;2022-07-29T07:59:34;17.90;89.70
14733;DHT22;7457;50.960;6.830;2022-07-29T08:01:59;17.90;90.00
14733;DHT22;7457;50.960;6.830;2022-07-29T08:04:26;17.90;90.00
14733;DHT22;7457;50.960;6.830;2022-07-29T08:06:52;18.00;90.20
14733;DHT22;7457;50.960;6.830;2022-07-29T08:09:20;18.00;90.30
14733;DHT22;7457;50.960;6.830;2022-07-29T08:11:46;18.00;90.30
14733;DHT22;7457;50.960;6.830;2022-07-29T08:14:12;18.00;90.20
14733;DHT22;7457;50.960;6.830;2022-07-29T08:16:39;18.10;90.30
14733;DHT22;7457;50.960;6.830;2022-07-29T08:19:05;18.10;90.30
14733;DHT22;7457;50.960;6.830;2022-07-29T08:21:31;18.10;90.40
14733;DHT22;7457;50.960;6.830;2022-07-29T08:23:56;18.10;90.50
14733;DHT22;7457;50.960;6.830;2022-07-29T08:26:44;18.10;90.60
14733;DHT22;7457;50.960;6.830;2022-07-29T08:29:10;18.20;90.70
14733;DHT22;7457;50.960;6.830;2022-07-29T08:31:36;18.30;90.80
14733;DHT22;7457;50.960;6.830;2022-07-29T08:34:02;18.30;90.80
14733;DHT22;7457;50.960;6.830;2022-07-29T08:36:29;18.30;91.10
14733;DHT22;7457;50.960;6.830;2022-07-29T08:38:54;18.30;91.10
14733;DHT22;7457;50.960;6.830;2022-07-29T08:41:20;18.40;91.00
14733;DHT22;7457;50.960;6.830;2022-07-29T08:43:50;18.50;91.00
14733;DHT22;7457;50.960;6.830;2022-07-29T08:46:18;18.50;91.10
14733;DHT22;7457;50.960;6.830;2022-07-29T08:48:44;18.60;91.00
14733;DHT22;7457;50.960;6.830;2022-07-29T08:51:17;18.70;91.00
14733;DHT22;7457;50.960;6.830;2022-07-29T08:53:44;18.80;91.00
14733;DHT22;7457;50.960;6.830;2022-07-29T08:56:13;18.80;90.90
14733;DHT22;7457;50.960;6.830;2022-07-29T08:58:39;18.90;91.00
14733;DHT22;7457;50.960;6.830;2022-07-29T09:01:07;18.90;90.90
14733;DHT22;7457;50.960;6.830;2022-07-29T09:03:35;19.00;90.90
14733;DHT22;7457;50.960;6.830;2022-07-29T09:06:03;19.00;90.90
14733;DHT22;7457;50.960;6.830;2022-07-29T09:08:31;19.10;90.90
14733;DHT22;7457;50.960;6.830;2022-07-29T09:10:57;19.00;90.80
14733;DHT22;7457;50.960;6.830;2022-07-29T09:13:23;19.10;90.70
14733;DHT22;7457;50.960;6.830;2022-07-29T09:15:50;19.10;90.70
14733;DHT22;7457;50.960;6.830;2022-07-29T09:21:04;19.20;90.80
14733;DHT22;7457;50.960;6.830;2022-07-29T09:26:33;19.40;90.70
14733;DHT22;7457;50.960;6.830;2022-07-29T09:28:59;19.60;90.70
14733;DHT22;7457;50.960;6.830;2022-07-29T09:31:36;19.80;90.80
14733;DHT22;7457;50.960;6.830;2022-07-29T09:34:03;20.20;90.80
14733;DHT22;7457;50.960;6.830;2022-07-29T09:36:29;20.60;90.60
14733;DHT22;7457;50.960;6.830;2022-07-29T09:39:02;21.00;90.30
14733;DHT22;7457;50.960;6.830;2022-07-29T09:41:28;21.30;89.80
14733;DHT22;7457;50.960;6.830;2022-07-29T09:43:58;21.60;89.00
14733;DHT22;7457;50.960;6.830;2022-07-29T09:46:25;22.00;88.50
14733;DHT22;7457;50.960;6.830;2022-07-29T09:49:11;22.30;87.60
14733;DHT22;7457;50.960;6.830;2022-07-29T09:51:38;22.50;86.50
14733;DHT22;7457;50.960;6.830;2022-07-29T09:54:23;22.70;85.90
14733;DHT22;7457;50.960;6.830;2022-07-29T09:56:49;22.70;85.00
14733;DHT22;7457;50.960;6.830;2022-07-29T09:59:15;22.70;84.80
14733;DHT22;7457;50.960;6.830;2022-07-29T10:01:41;22.70;84.60
14733;DHT22;7457;50.960;6.830;2022-07-29T10:04:06;22.70;84.20
14733;DHT22;7457;50.960;6.830;2022-07-29T10:06:32;22.60;83.60
14733;DHT22;7457;50.960;6.830;2022-07-29T10:09:08;22.50;83.80
14733;DHT22;7457;50.960;6.830;2022-07-29T10:11:34;22.50;83.80
14733;DHT22;7457;50.960;6.830;2022-07-29T10:14:02;22.50;83.80
14733;DHT22;7457;50.960;6.830;2022-07-29T10:16:28;22.50;83.70
14733;DHT22;7457;50.960;6.830;2022-07-29T10:18:59;22.50;83.50
14733;DHT22;7457;50.960;6.830;2022-07-29T10:21:27;22.50;83.50
14733;DHT22;7457;50.960;6.830;2022-07-29T10:23:55;22.60;83.50
14733;DHT22;7457;50.960;6.830;2022-07-29T10:26:22;22.70;83.10
14733;DHT22;7457;50.960;6.830;2022-07-29T10:28:48;22.90;82.80
14733;DHT22;7457;50.960;6.830;2022-07-29T10:31:21;23.00;82.70
14733;DHT22;7457;50.960;6.830;2022-07-29T10:37:07;23.50;82.50
14733;DHT22;7457;50.960;6.830;2022-07-29T10:40:07;24.10;82.40
14733;DHT22;7457;50.960;6.830;2022-07-29T10:43:31;24.70;81.30
14733;DHT22;7457;50.960;6.830;2022-07-29T10:45:57;25.40;80.30
14733;DHT22;7457;50.960;6.830;2022-07-29T10:48:24;26.10;79.40
14733;DHT22;7457;50.960;6.830;2022-07-29T10:51:03;26.50;78.30
14733;DHT22;7457;50.960;6.830;2022-07-29T10:53:51;26.80;77.00
14733;DHT22;7457;50.960;6.830;2022-07-29T10:56:27;26.90;75.60
14733;DHT22;7457;50.960;6.830;2022-07-29T11:01:43;27.60;74.10
14733;DHT22;7457;50.960;6.830;2022-07-29T11:04:09;28.00;73.10
14733;DHT22;7457;50.960;6.830;2022-07-29T11:07:06;28.30;72.20
14733;DHT22;7457;50.960;6.830;2022-07-29T11:09:38;28.60;71.10
14733;DHT22;7457;50.960;6.830;2022-07-29T11:12:50;28.80;70.50
14733;DHT22;7457;50.960;6.830;2022-07-29T11:15:00;29.00;69.70
14733;DHT22;7457;50.960;6.830;2022-07-29T11:17:28;29.30;69.10
14733;DHT22;7457;50.960;6.830;2022-07-29T11:22:57;29.50;65.60
14733;DHT22;7457;50.960;6.830;2022-07-29T11:25:23;29.50;66.60
14733;DHT22;7457;50.960;6.830;2022-07-29T11:27:49;29.70;66.30
14733;DHT22;7457;50.960;6.830;2022-07-29T11:30:16;29.80;65.60
14733;DHT22;7457;50.960;6.830;2022-07-29T11:32:44;30.00;65.00
14733;DHT22;7457;50.960;6.830;2022-07-29T11:35:18;30.20;64.30
14733;DHT22;7457;50.960;6.830;2022-07-29T11:40:32;30.10;62.60
14733;DHT22;7457;50.960;6.830;2022-07-29T11:42:58;30.00;60.80
14733;DHT22;7457;50.960;6.830;2022-07-29T11:45:25;29.90;59.70
14733;DHT22;7457;50.960;6.830;2022-07-29T11:47:55;29.60;58.50
14733;DHT22;7457;50.960;6.830;2022-07-29T11:50:30;29.30;58.20
14733;DHT22;7457;50.960;6.830;2022-07-29T11:52:57;29.00;58.10
14733;DHT22;7457;50.960;6.830;2022-07-29T11:55:23;28.80;58.10
14733;DHT22;7457;50.960;6.830;2022-07-29T11:58:02;28.60;58.30
14733;DHT22;7457;50.960;6.830;2022-07-29T12:00:39;28.70;58.00
14733;DHT22;7457;50.960;6.830;2022-07-29T12:03:07;28.70;58.30
14733;DHT22;7457;50.960;6.830;2022-07-29T12:05:42;28.80;58.00
14733;DHT22;7457;50.960;6.830;2022-07-29T12:08:16;28.80;57.70
14733;DHT22;7457;50.960;6.830;2022-07-29T12:10:45;28.80;58.00
14733;DHT22;7457;50.960;6.830;2022-07-29T12:13:12;28.70;57.50
14733;DHT22;7457;50.960;6.830;2022-07-29T12:15:38;28.50;57.00
14733;DHT22;7457;50.960;6.830;2022-07-29T12:18:12;28.30;57.40
14733;DHT22;7457;50.960;6.830;2022-07-29T12:20:39;27.90;56.80
14733;DHT22;7457;50.960;6.830;2022-07-29T12:23:06;27.60;57.20
14733;DHT22;7457;50.960;6.830;2022-07-29T12:25:33;27.50;57.20
14733;DHT22;7457;50.960;6.830;2022-07-29T12:28:01;27.50;57.20
14733;DHT22;7457;50.960;6.830;2022-07-29T12:30:46;27.60;57.20
14733;DHT22;7457;50.960;6.830;2022-07-29T12:33:17;27.60;56.90
14733;DHT22;7457;50.960;6.830;2022-07-29T12:35:55;27.60;56.70
14733;DHT22;7457;50.960;6.830;2022-07-29T12:38:21;27.50;56.40
14733;DHT22;7457;50.960;6.830;2022-07-29T12:40:48;27.50;56.50
14733;DHT22;7457;50.960;6.830;2022-07-29T12:43:17;27.40;56.40
14733;DHT22;7457;50.960;6.830;2022-07-29T12:45:46;27.30;56.00
14733;DHT22;7457;50.960;6.830;2022-07-29T12:48:12;27.40;55.90
14733;DHT22;7457;50.960;6.830;2022-07-29T12:50:58;27.50;55.90
14733;DHT22;7457;50.960;6.830;2022-07-29T12:53:24;27.70;55.40
14733;DHT22;7457;50.960;6.830;2022-07-29T12:55:52;27.80;55.50
14733;DHT22;7457;50.960;6.830;2022-07-29T12:58:32;27.90;55.10
14733;DHT22;7457;50.960;6.830;2022-07-29T13:01:15;28.00;54.50
14733;DHT22;7457;50.960;6.830;2022-07-29T13:03:52;28.10;54.50
14733;DHT22;7457;50.960;6.830;2022-07-29T13:06:40;28.10;54.30
14733;DHT22;7457;50.960;6.830;2022-07-29T13:09:16;28.10;54.70
14733;DHT22;7457;50.960;6.830;2022-07-29T13:11:47;28.10;54.90
14733;DHT22;7457;50.960;6.830;2022-07-29T13:14:29;28.10;55.20
14733;DHT22;7457;50.960;6.830;2022-07-29T13:17:02;28.10;55.40
14733;DHT22;7457;50.960;6.830;2022-07-29T13:19:38;27.90;55.30
14733;DHT22;7457;50.960;6.830;2022-07-29T13:22:06;27.70;55.40
14733;DHT22;7457;50.960;6.830;2022-07-29T13:24:44;27.40;55.80
14733;DHT22;7457;50.960;6.830;2022-07-29T13:27:10;27.30;56.30
14733;DHT22;7457;50.960;6.830;2022-07-29T13:29:36;27.20;56.80
14733;DHT22;7457;50.960;6.830;2022-07-29T13:32:05;27.20;57.00
14733;DHT22;7457;50.960;6.830;2022-07-29T13:34:31;27.20;57.20
14733;DHT22;7457;50.960;6.830;2022-07-29T13:36:56;27.20;57.30
14733;DHT22;7457;50.960;6.830;2022-07-29T13:39:22;27.30;57.00
14733;DHT22;7457;50.960;6.830;2022-07-29T13:41:48;27.30;57.00
14733;DHT22;7457;50.960;6.830;2022-07-29T13:44:13;27.40;56.40
14733;DHT22;7457;50.960;6.830;2022-07-29T13:46:39;27.40;56.30
14733;DHT22;7457;50.960;6.830;2022-07-29T13:49:04;27.50;56.40
14733;DHT22;7457;50.960;6.830;2022-07-29T13:51:30;27.60;56.20
14733;DHT22;7457;50.960;6.830;2022-07-29T13:53:56;27.60;56.50
14733;DHT22;7457;50.960;6.830;2022-07-29T13:56:22;27.60;55.70
14733;DHT22;7457;50.960;6.830;2022-07-29T13:58:47;27.50;55.90
14733;DHT22;7457;50.960;6.830;2022-07-29T14:01:13;27.40;56.20
14733;DHT22;7457;50.960;6.830;2022-07-29T14:03:38;27.30;56.40
14733;DHT22;7457;50.960;6.830;2022-07-29T14:06:06;27.30;56.70
14733;DHT22;7457;50.960;6.830;2022-07-29T14:08:32;27.30;57.00
14733;DHT22;7457;50.960;6.830;2022-07-29T14:10:58;27.30;57.00
14733;DHT22;7457;50.960;6.830;2022-07-29T14:13:24;27.30;57.00
14733;DHT22;7457;50.960;6.830;2022-07-29T14:15:49;27.30;57.00
14733;DHT22;7457;50.960;6.830;2022-07-29T14:18:15;27.20;57.00
14733;DHT22;7457;50.960;6.830;2022-07-29T14:20:40;27.10;56.90
14733;DHT22;7457;50.960;6.830;2022-07-29T14:23:06;27.00;56.90
14733;DHT22;7457;50.960;6.830;2022-07-29T14:25:32;26.90;56.80
14733;DHT22;7457;50.960;6.830;2022-07-29T14:27:57;26.80;56.70
14733;DHT22;7457;50.960;6.830;2022-07-29T14:30:23;26.80;56.70
14733;DHT22;7457;50.960;6.830;2022-07-29T14:32:48;26.70;57.10
14733;DHT22;7457;50.960;6.830;2022-07-29T14:35:14;26.70;57.10
14733;DHT22;7457;50.960;6.830;2022-07-29T14:37:40;26.70;57.20
14733;DHT22;7457;50.960;6.830;2022-07-29T14:40:07;26.70;57.30
14733;DHT22;7457;50.960;6.830;2022-07-29T14:42:33;26.80;57.30
14733;DHT22;7457;50.960;6.830;2022-07-29T14:44:58;26.80;57.30
14733;DHT22;7457;50.960;6.830;2022-07-29T14:47:24;26.90;57.40
14733;DHT22;7457;50.960;6.830;2022-07-29T14:49:50;26.90;57.40
14733;DHT22;7457;50.960;6.830;2022-07-29T14:52:15;26.90;57.40
14733;DHT22;7457;50.960;6.830;2022-07-29T14:54:41;27.00;57.30
14733;DHT22;7457;50.960;6.830;2022-07-29T14:57:07;27.00;57.90
14733;DHT22;7457;50.960;6.830;2022-07-29T14:59:32;27.00;56.80
14733;DHT22;7457;50.960;6.830;2022-07-29T15:01:58;26.90;56.80
14733;DHT22;7457;50.960;6.830;2022-07-29T15:04:24;26.80;56.70
14733;DHT22;7457;50.960;6.830;2022-07-29T15:06:49;26.70;56.90
14733;DHT22;7457;50.960;6.830;2022-07-29T15:09:15;26.50;57.00
14733;DHT22;7457;50.960;6.830;2022-07-29T15:11:41;26.50;57.30
14733;DHT22;7457;50.960;6.830;2022-07-29T15:14:06;26.40;57.40
14733;DHT22;7457;50.960;6.830;2022-07-29T15:16:34;26.20;57.50
14733;DHT22;7457;50.960;6.830;2022-07-29T15:19:00;26.20;57.80
14733;DHT22;7457;50.960;6.830;2022-07-29T15:21:26;26.10;57.60
14733;DHT22;7457;50.960;6.830;2022-07-29T15:23:51;26.10;57.30
14733;DHT22;7457;50.960;6.830;2022-07-29T15:26:17;26.10;57.00
14733;DHT22;7457;50.960;6.830;2022-07-29T15:28:44;26.20;56.50
14733;DHT22;7457;50.960;6.830;2022-07-29T15:31:09;26.30;56.50
14733;DHT22;7457;50.960;6.830;2022-07-29T15:33:35;26.30;56.40
14733;DHT22;7457;50.960;6.830;2022-07-29T15:36:01;26.30;56.40
14733;DHT22;7457;50.960;6.830;2022-07-29T15:38:26;26.40;56.50
14733;DHT22;7457;50.960;6.830;2022-07-29T15:40:52;26.40;56.50
14733;DHT22;7457;50.960;6.830;2022-07-29T15:43:17;26.40;56.50
14733;DHT22;7457;50.960;6.830;2022-07-29T15:45:43;26.40;56.40
14733;DHT22;7457;50.960;6.830;2022-07-29T15:48:28;26.40;55.90
14733;DHT22;7457;50.960;6.830;2022-07-29T15:50:53;26.30;56.60
14733;DHT22;7457;50.960;6.830;2022-07-29T15:53:19;26.20;56.20
14733;DHT22;7457;50.960;6.830;2022-07-29T15:55:44;26.20;56.30
14733;DHT22;7457;50.960;6.830;2022-07-29T15:58:10;26.10;56.20
14733;DHT22;7457;50.960;6.830;2022-07-29T16:00:36;26.00;56.20
14733;DHT22;7457;50.960;6.830;2022-07-29T16:03:01;25.90;56.20
14733;DHT22;7457;50.960;6.830;2022-07-29T16:05:27;25.70;56.00
14733;DHT22;7457;50.960;6.830;2022-07-29T16:07:54;25.70;56.00
14733;DHT22;7457;50.960;6.830;2022-07-29T16:10:19;25.70;55.90
14733;DHT22;7457;50.960;6.830;2022-07-29T16:12:49;25.70;55.50
14733;DHT22;7457;50.960;6.830;2022-07-29T16:15:14;25.70;55.20
14733;DHT22;7457;50.960;6.830;2022-07-29T16:17:40;25.60;54.90
14733;DHT22;7457;50.960;6.830;2022-07-29T16:20:06;25.60;54.70